Terminal Aerodrome Forecast
Issued by NWS Lake Charles, LA

Home | Current Version | Previous Version | Text Only | Print | Product List | Glossary On
Versions: 1 2 3 4 5 6 7 8 9 10 11 12 13 14 15 16 17 18 19 20 21 22 23 24 25
704
FTUS44 KLCH 201744
TAFLFT
TAF
KLFT 201744Z 2018/2118 24008KT P6SM SCT015
     FM210300 VRB05KT 4SM BR SCT007
      TEMPO 2103/2106 1SM -TSRA OVC007CB
     FM210600 VRB04KT 1SM -TSRA OVC004CB
     FM211200 VRB04KT 1/2SM FG VCTS OVC003CB
     FM211600 22006KT P6SM OVC007=

USA.gov is the U.S. government's official web portal to all federal, state and local government web resources and services.